x

Yucatan Basin - 120 Nm Ese Of Cozumel, Mx (42056) Wave Buoy

7:50 - Thu 24th Apr 2014 All times are CDT. -5 hours from GMT.

  • Sig Wave height 1.3ft
  • Swell Direction
  • Peak Period 8s
  • Average Period 5s
  • Wind
    9mph, 11mph gusts
  • Sea Temp 83°f
  • Air Temp 81°f
  • Sea Pressure 1013mb
  •  Yucatan Basin - 120 Nm Ese Of Cozumel, Mx
  •  Yucatan Basin - 120 Nm Ese Of Cozumel, Mx

More Historic Weather Station data

Upgrade to MSW Pro to gain access to the past 30 days of data for over 8000 Wavebouys and Weather Stations around the globe.

Join Pro

Comparision Forecast

View Surf forecast
   
jeu. 04/24 7:50 1.3ft 8s 5s 9 11 mph 1013mb 83f 81f
6:50 1.3ft 8s 6s 11 13 mph 1012.3mb 83f 81f
5:50 1.3ft 8s 6s 7 9 mph 1011.9mb 83f 80f
4:50 1.3ft 7s 6s 7 9 mph 1011.5mb 83f 80f
3:50 1.3ft 8s 6s 9 11 mph 1011.3mb 83f 79f
2:50 1.3ft 8s 6s 4 9 mph 1011.6mb 83f 79f
1:50 1.3ft 8s 6s 4 7 mph 1012.3mb 83f 80f
12:50 1.3ft 8s 6s 4 7 mph 1013mb 83f 80f
mer. 04/23 11:50 1.3ft 8s 5s 7
mph
1013.4mb 83f 80f
10:50 1.3ft 8s 6s 4 7 mph 1013.5mb 84f 80f
9:50 1.3ft 8s 5s 4 7 mph 1013.3mb 85f 80f
8:50 1.3ft 8s 6s 4
mph
1013.2mb 84f 80f
7:50 1.3ft 8s 5s 2 4 mph 1012.7mb 85f 80f
6:50 1.3ft 7s 5s  -  2 mph 1012.1mb 87f 81f
5:50 1.6ft 8s 5s  -  2 mph 1011.8mb 87f 81f
4:50 1.6ft 8s 5s 2 4 mph 1011.5mb 87f 81f
3:50 1.3ft 8s 5s 2 4 mph 1011.8mb 87f 81f
2:50 1.3ft 7s 5s  -  4 mph 1012.3mb 88f 81f
1:50 1.3ft 8s 5s 2
mph
1013mb 86f 80f
12:50 1.6ft 8s 5s 2 4 mph 1013.8mb 85f 80f
11:50 1.6ft 9s 5s  -  2 mph 1014.3mb 84f 80f
10:50 1.6ft 8s 5s 2 4 mph 1014.4mb 84f 79f
9:50 1.6ft 8s 5s 2 4 mph 1014.3mb 83f 79f
8:50 1.6ft 8s 5s 2 4 mph 1013.8mb 82f 79f
7:50 1.6ft 8s 5s 2 4 mph 1013.3mb 82f 79f
6:50 1.6ft 8s 5s 2 4 mph 1012.6mb 82f 78f
5:50 1.6ft 8s 5s 4
mph
1012mb 82f 78f
4:50 1.6ft 8s 5s 2 4 mph 1011.9mb 82f 78f
3:50 1.6ft 7s 5s 2 4 mph 1011.5mb 82f 78f
2:50 1.6ft 8s 5s 4 7 mph 1011.6mb 82f 78f
1:50 1.6ft 8s 5s 4
mph
1012mb 82f 78f
12:50 1.6ft 8s 5s 7 9 mph 1012.5mb 82f 79f
mar. 04/22 11:50 1.6ft 8s 5s 4 7 mph 1013mb 82f 79f
10:50 1.6ft 8s 5s 4 7 mph 1013.1mb 82f 79f
9:50 1.6ft 8s 5s 7
mph
1012.8mb 82f 79f
8:50 1.6ft 8s 5s 4 7 mph 1012.7mb 82f 79f
7:50 1.6ft 8s 5s 4 7 mph 1012.2mb 82f 79f
6:50 1.6ft 8s 5s 9 11 mph 1011.6mb 83f 79f
5:50 1.6ft 8s 5s 9
mph
1011.4mb 83f 80f
4:50 1.6ft 8s 5s 4 9 mph 1011.4mb 83f 79f
3:50 1.6ft 9s 5s 4 7 mph 1011.7mb 84f 80f
2:50 1.6ft 8s 5s 2 7 mph 1012.2mb 84f 79f
1:50 2ft 8s 5s 4 7 mph 1012.5mb 83f 79f
12:50 2ft 8s 5s 2 4 mph 1013.4mb 83f 79f
11:50 2ft 8s 5s 4 7 mph 1014.1mb 83f 78f
10:50 2ft 6s 5s 4 7 mph 1014.6mb 82f 78f
9:50 2.5ft 8s 5s 7 9 mph 1014.4mb 82f 78f
8:50 2ft 7s 5s 4 9 mph 1013.9mb 82f 78f
7:50 2ft 8s 5s 7 9 mph 1013.5mb 82f 78f
6:50 2ft 7s 5s 4 7 mph 1012.6mb 82f 78f
5:50 2ft 7s 5s 2 4 mph 1012.2mb 82f 78f
4:50 2ft 8s 5s 4 7 mph 1011.9mb 82f 78f
3:50 2ft 8s 5s 2 4 mph 1012mb 82f 78f
2:50 2.5ft 9s 5s 4 7 mph 1012.3mb 82f 78f
1:50 2.5ft 8s 5s 4
mph
1013.1mb 82f 78f
12:50 2.5ft 9s 5s 7 9 mph 1013.9mb 82f 78f
lun. 04/21 11:50 2.5ft 8s 5s 4 9 mph 1014.5mb 82f 79f
10:50 2.5ft 8s 5s 4 7 mph 1014.7mb 82f 79f
9:50 2.5ft 8s 5s 9 11 mph 1014.5mb 82f 78f
8:50 2.5ft 8s 5s 9 13 mph 1014.2mb 82f 78f
7:50 2.5ft 8s 5s 11 13 mph 1013.6mb 82f 78f
6:50 2.5ft 8s 5s 11 13 mph 1013mb 82f 78f
5:50 2.5ft 8s 5s 9 13 mph 1012.9mb 82f 78f
4:50 2.5ft 8s 5s 11 13 mph 1012.9mb 82f 79f
3:50 2.5ft 8s 5s 11 16 mph 1013.3mb 82f 79f
2:50 3ft 8s 5s 11 16 mph 1013.7mb 82f 79f
1:50 3ft 8s 5s 9 13 mph 1014.6mb 82f 79f
12:50 3ft 8s 5s 11
mph
1015.1mb 82f 79f
11:50 3ft 8s 5s 11 13 mph 1015.7mb 82f 78f
10:50 3.5ft 8s 5s 13 16 mph 1016mb 82f 78f
9:50 3.5ft 8s 5s 11 16 mph 1016mb 82f 79f
8:50 3.5ft 8s 5s 13 18 mph 1015.8mb 82f 78f
7:50 3.5ft 5s 5s 13 18 mph 1015.6mb 82f 78f
6:50 3.5ft 5s 5s 16 18 mph 1015.2mb 82f 78f
5:50 3.5ft 5s 5s 13 18 mph 1014.8mb 82f 78f
4:50 3.5ft 8s 5s 16 18 mph 1014.3mb 82f 78f
3:50 3.5ft 8s 5s 13 18 mph 1014.5mb 82f 78f
2:50 3.5ft 8s 5s 13 18 mph 1014.8mb 82f 78f
1:50 3.5ft 8s 5s 13 18 mph 1015mb 82f 78f
12:50 3ft 8s 5s 13 18 mph 1015.6mb 82f 79f
dim. 04/20 11:50 3ft 8s 5s 13 18 mph 1016.2mb 82f 79f
10:50 3ft 8s 5s 13 16 mph 1016.1mb 82f 79f
9:50 3ft 8s 5s 13 16 mph 1016mb 82f 79f
8:50 3ft 8s 5s 13
mph
1015.9mb 82f 79f
7:50 3.5ft 8s 5s 13 16 mph 1015.4mb 82f 79f
6:50 3.5ft 8s 5s 16 18 mph 1015mb 82f 79f
5:50 3.5ft 8s 5s 13 18 mph 1014.9mb 82f 79f
4:50 3.5ft 5s 5s 13 16 mph 1015.1mb 82f 79f
3:50 3.5ft 8s 5s 13 16 mph 1015.3mb 82f 79f
2:50 3.5ft 6s 5s 16 18 mph 1015.4mb 82f 79f